Alcobendas, Spain
Current Conditions -  °F | °C
As of 7:30 PM on Thursday 23 Oct 2014 (Local Time) from LEMD Reporting Station
Clear Clear  
Wind Chill: 72°   Ceiling: Unl
Heat Index: 72°   Visibility: 6mi
Dew Point: 39°   Wind: 10mph
Humidity: 31%   Direction: 360°N
Pressure: 30.18"   Gusts: NA
Location:  40.55°N, 3.64°W
Report Text: LEMD 231730Z 36009KT CAVOK 22/04 Q1022 NOSIG
Loading
Personal Weather Stations






























Interactive Weather Map
Tropical Storm Tracking
New forecast layout! Learn more

10-Day Weather Forecast

Advertisements
Track Severe Weather on mobile